createdAt,value
2019-05-23T00:00:49.475Z,46.83
2019-05-23T00:05:57.917Z,47.53
2019-05-23T00:11:04.235Z,47.53
2019-05-23T00:16:09.656Z,46.57
2019-05-23T00:21:14.197Z,46.57
2019-05-23T00:26:18.137Z,47.03
2019-05-23T00:31:26.550Z,47.26
2019-05-23T00:36:31.393Z,47.42
2019-05-23T00:41:35.623Z,47.42
2019-05-23T00:46:39.483Z,47.86
2019-05-23T00:51:43.530Z,47.86
2019-05-23T00:56:47.502Z,47.89
2019-05-23T01:01:51.280Z,48.30
2019-05-23T01:06:56.257Z,48.35
2019-05-23T01:12:00.023Z,48.50
2019-05-23T01:17:03.864Z,48.50
2019-05-23T01:22:10.411Z,48.13
2019-05-23T01:27:14.262Z,48.40
2019-05-23T01:32:25.767Z,48.89
2019-05-23T01:37:31.361Z,49.00
2019-05-23T01:42:38.501Z,49.00
2019-05-23T01:47:42.673Z,48.91
2019-05-23T01:52:46.668Z,48.54
2019-05-23T01:57:51.213Z,48.91
2019-05-23T02:02:56.104Z,48.91
2019-05-23T02:08:00.171Z,48.85
2019-05-23T02:13:03.989Z,48.96
2019-05-23T02:18:07.831Z,49.25
2019-05-23T02:23:12.902Z,49.25
2019-05-23T02:28:17.564Z,49.20
2019-05-23T02:33:21.366Z,49.16
2019-05-23T02:38:47.164Z,48.76
2019-05-23T02:43:55.805Z,48.76
2019-05-23T02:49:04.289Z,48.94
2019-05-23T02:54:09.904Z,49.22
2019-05-23T02:59:38.888Z,48.49
2019-05-23T03:04:44.370Z,48.66
2019-05-23T03:09:48.467Z,48.78
2019-05-23T03:14:52.234Z,48.67
2019-05-23T03:20:01.399Z,48.94
2019-05-23T03:25:09.322Z,48.94
2019-05-23T03:30:17.232Z,49.11
2019-05-23T03:35:26.589Z,48.94
2019-05-23T03:40:30.573Z,49.30
2019-05-23T03:45:40.373Z,49.38
2019-05-23T03:50:44.443Z,49.19
2019-05-23T03:55:50.218Z,48.95
2019-05-23T04:00:57.207Z,48.83
2019-05-23T04:06:02.111Z,48.84
2019-05-23T04:11:06.075Z,48.84
2019-05-23T04:16:11.422Z,48.58
2019-05-23T04:21:16.256Z,48.11
2019-05-23T04:26:23.790Z,48.11
2019-05-23T04:31:27.549Z,48.36
2019-05-23T04:36:31.359Z,47.94
2019-05-23T04:41:35.191Z,47.90
2019-05-23T04:46:39.224Z,47.90
2019-05-23T04:51:43.176Z,48.21
2019-05-23T04:56:46.936Z,48.21
2019-05-23T05:01:50.948Z,48.02
2019-05-23T05:06:55.275Z,48.31
2019-05-23T05:12:00.230Z,47.92
2019-05-23T05:17:04.981Z,47.92
2019-05-23T05:22:08.762Z,48.12
2019-05-23T05:27:14.845Z,48.32
2019-05-23T05:32:18.880Z,47.88
2019-05-23T05:37:22.662Z,47.88
2019-05-23T05:42:28.077Z,47.66
2019-05-23T05:47:32.011Z,47.66
2019-05-23T05:52:36.285Z,47.91
2019-05-23T05:57:40.105Z,47.95
2019-05-23T06:03:00.877Z,47.43
2019-05-23T06:07:50.562Z,48.07
2019-05-23T06:12:54.347Z,47.65
2019-05-23T06:17:58.316Z,47.71
2019-05-23T06:23:02.123Z,47.71
2019-05-23T06:28:06.705Z,46.75
2019-05-23T06:33:22.467Z,46.95
2019-05-23T06:38:17.243Z,46.73
2019-05-23T06:43:21.059Z,47.43
2019-05-23T06:48:25.357Z,48.27
2019-05-23T06:53:29.167Z,46.27
2019-05-23T06:58:33.062Z,47.21
2019-05-23T07:03:42.552Z,47.83
2019-05-23T07:08:42.498Z,50.25
2019-05-23T07:13:47.669Z,50.25
2019-05-23T07:18:51.517Z,49.72
2019-05-23T07:23:55.318Z,44.09
2019-05-23T07:28:59.127Z,43.43
2019-05-23T07:34:02.911Z,43.13
2019-05-23T07:39:11.460Z,43.51
2019-05-23T07:44:14.436Z,43.27
2019-05-23T07:49:18.315Z,43.27
2019-05-23T07:54:27.788Z,43.35
2019-05-23T07:59:32.061Z,43.75
2019-05-23T08:04:35.973Z,43.75
2019-05-23T08:09:40.491Z,43.66
2019-05-23T08:14:44.269Z,43.64
2019-05-23T08:19:50.102Z,43.51
2019-05-23T08:24:53.773Z,43.85
2019-05-23T08:29:57.739Z,43.79
2019-05-23T08:35:01.872Z,43.55
2019-05-23T08:40:06.989Z,43.55
2019-05-23T08:45:11.975Z,43.07
2019-05-23T08:50:17.318Z,43.29
2019-05-23T08:55:21.908Z,43.38
2019-05-23T09:00:27.204Z,43.02
2019-05-23T09:05:32.276Z,43.52
2019-05-23T09:10:36.192Z,43.29
2019-05-23T09:15:40.108Z,43.29
2019-05-23T09:20:43.918Z,42.92
2019-05-23T09:25:47.688Z,42.92
2019-05-23T09:30:51.666Z,42.83
2019-05-23T09:35:55.584Z,42.83
2019-05-23T09:40:59.340Z,42.70
2019-05-23T09:46:03.102Z,42.50
2019-05-23T09:51:06.890Z,42.50
2019-05-23T09:56:10.703Z,42.74
2019-05-23T10:01:14.988Z,42.16
2019-05-23T10:06:20.380Z,42.16
2019-05-23T10:11:24.217Z,42.44
2019-05-23T10:16:28.783Z,42.03
2019-05-23T10:21:32.678Z,42.03
2019-05-23T10:26:36.531Z,42.11
2019-05-23T10:31:40.458Z,42.70
2019-05-23T10:36:44.190Z,42.06
2019-05-23T10:41:48.245Z,42.03
2019-05-23T10:46:52.006Z,42.03
2019-05-23T10:51:55.854Z,41.58
2019-05-23T10:56:59.620Z,41.84
2019-05-23T11:02:03.638Z,42.63
2019-05-23T11:07:08.423Z,42.56
2019-05-23T11:12:13.635Z,43.23
2019-05-23T11:17:17.477Z,43.78
2019-05-23T11:22:22.038Z,43.78
2019-05-23T11:27:26.789Z,44.67
2019-05-23T11:32:30.928Z,43.99
2019-05-23T11:37:34.780Z,43.99
2019-05-23T11:42:38.549Z,42.91
2019-05-23T11:47:42.891Z,43.08
2019-05-23T11:52:46.719Z,43.49
2019-05-23T11:57:50.491Z,43.27
2019-05-23T12:02:54.534Z,43.20
2019-05-23T12:07:58.428Z,43.12
2019-05-23T12:13:02.264Z,42.93
2019-05-23T12:18:07.294Z,43.33
2019-05-23T12:23:11.377Z,42.63
2019-05-23T12:28:15.489Z,42.78
2019-05-23T12:33:19.754Z,42.78
2019-05-23T12:38:23.611Z,41.83
2019-05-23T12:43:27.421Z,41.57
2019-05-23T12:48:56.043Z,41.75
2019-05-23T12:53:59.835Z,41.11
2019-05-23T12:59:05.193Z,41.16
2019-05-23T13:04:15.872Z,40.55
2019-05-23T13:09:19.656Z,40.55
2019-05-23T13:14:23.638Z,40.95
2019-05-23T13:19:28.077Z,40.87
2019-05-23T13:24:50.537Z,41.32
2019-05-23T13:29:37.762Z,41.44
2019-05-23T13:34:41.589Z,41.03
2019-05-23T13:39:45.357Z,41.36
2019-05-23T13:44:50.083Z,41.18
2019-05-23T13:49:53.851Z,40.96
2019-05-23T13:54:57.651Z,40.48
2019-05-23T14:00:01.438Z,40.48
2019-05-23T14:05:06.359Z,41.00
2019-05-23T14:10:12.623Z,40.87
2019-05-23T14:15:19.290Z,41.30
2019-05-23T14:20:23.523Z,41.15
2019-05-23T14:25:27.467Z,41.15
2019-05-23T14:31:02.195Z,41.27
2019-05-23T14:36:10.041Z,41.04
2019-05-23T14:41:13.986Z,41.04
2019-05-23T14:46:18.830Z,40.74
2019-05-23T14:51:40.555Z,40.04
2019-05-23T14:56:46.197Z,40.04
2019-05-23T15:01:49.968Z,40.37
2019-05-23T15:06:53.906Z,40.48
2019-05-23T15:11:57.759Z,40.18
2019-05-23T15:17:01.548Z,39.42
2019-05-23T15:22:05.306Z,39.42
2019-05-23T15:27:09.130Z,39.26
2019-05-23T15:32:12.910Z,39.03
2019-05-23T15:37:16.733Z,38.51
2019-05-23T15:42:20.505Z,38.69
2019-05-23T15:47:28.008Z,38.90
2019-05-23T15:52:40.565Z,39.54
2019-05-23T15:57:59.201Z,39.54
2019-05-23T16:03:13.845Z,39.39
2019-05-23T16:08:19.360Z,39.90
2019-05-23T16:13:23.520Z,40.49
2019-05-23T16:18:27.724Z,41.12
2019-05-23T16:23:31.526Z,41.90
2019-05-23T16:28:35.312Z,41.90
2019-05-23T16:33:39.338Z,42.10
2019-05-23T16:38:43.185Z,41.88
2019-05-23T16:43:47.216Z,41.88
2019-05-23T16:48:51.370Z,41.56
2019-05-23T16:53:55.175Z,41.56
2019-05-23T16:59:21.130Z,41.35
2019-05-23T17:04:43.879Z,41.11
2019-05-23T17:10:07.424Z,41.33
2019-05-23T17:15:05.541Z,41.33
2019-05-23T17:20:22.252Z,41.17
2019-05-23T17:25:50.277Z,41.70
2019-05-23T17:30:57.656Z,41.66
2019-05-23T17:36:01.530Z,40.88
2019-05-23T17:41:05.385Z,40.88
2019-05-23T17:46:09.151Z,40.94
2019-05-23T17:51:13.134Z,40.94
2019-05-23T17:56:17.044Z,40.94
2019-05-23T18:01:24.605Z,34.42
2019-05-23T18:06:28.793Z,37.14
2019-05-23T18:11:32.563Z,37.14
2019-05-23T18:16:37.503Z,38.45
2019-05-23T18:21:41.682Z,38.88
2019-05-23T18:26:45.482Z,38.72
2019-05-23T18:31:50.928Z,38.91
2019-05-23T18:36:54.740Z,38.86
2019-05-23T18:41:58.927Z,38.87
2019-05-23T18:47:04.448Z,38.87
2019-05-23T18:52:08.795Z,39.80
2019-05-23T18:57:12.620Z,39.80
2019-05-23T19:02:16.577Z,39.25
2019-05-23T19:07:20.388Z,39.25
2019-05-23T19:12:24.249Z,40.11
2019-05-23T19:17:28.033Z,39.89
2019-05-23T19:22:32.071Z,40.22
2019-05-23T19:27:37.001Z,40.20
2019-05-23T19:32:40.780Z,40.67
2019-05-23T19:37:45.218Z,40.42
2019-05-23T19:42:48.994Z,40.64
2019-05-23T19:47:52.846Z,40.64
2019-05-23T19:52:56.695Z,40.89
2019-05-23T19:58:00.729Z,40.76
2019-05-23T20:03:04.605Z,40.76
2019-05-23T20:08:08.536Z,41.20
2019-05-23T20:13:12.385Z,41.40
2019-05-23T20:18:16.651Z,41.79
2019-05-23T20:23:20.425Z,41.37
2019-05-23T20:28:24.603Z,42.07
2019-05-23T20:33:28.913Z,41.62
2019-05-23T20:38:33.011Z,42.19
2019-05-23T20:43:36.965Z,42.19
2019-05-23T20:48:40.806Z,42.55
2019-05-23T20:53:45.399Z,42.55
2019-05-23T20:58:49.308Z,42.29
2019-05-23T21:03:54.903Z,42.27
2019-05-23T21:08:58.748Z,42.87
2019-05-23T21:14:02.601Z,42.33
2019-05-23T21:19:06.435Z,42.33
2019-05-23T21:24:10.276Z,42.69
2019-05-23T21:29:14.094Z,42.31
2019-05-23T21:34:17.843Z,42.75
2019-05-23T21:39:22.171Z,42.31
2019-05-23T21:44:26.306Z,42.31
2019-05-23T21:49:30.149Z,42.03
2019-05-23T21:54:33.912Z,42.47
2019-05-23T21:59:37.885Z,42.78
2019-05-23T22:04:49.641Z,42.39
2019-05-23T22:09:53.455Z,43.16
2019-05-23T22:14:57.233Z,42.74
2019-05-23T22:20:01.141Z,42.90
2019-05-23T22:25:06.193Z,42.98
2019-05-23T22:30:10.144Z,42.98
2019-05-23T22:35:17.032Z,43.44
2019-05-23T22:40:20.831Z,43.32
2019-05-23T22:45:26.524Z,43.30
2019-05-23T22:50:30.333Z,42.96
2019-05-23T22:55:34.097Z,42.96
2019-05-23T23:00:39.731Z,43.43
2019-05-23T23:05:43.625Z,43.16
2019-05-23T23:10:47.395Z,44.05
2019-05-23T23:15:51.373Z,43.87
2019-05-23T23:20:55.145Z,44.06
2019-05-23T23:25:58.941Z,44.06
2019-05-23T23:31:03.058Z,43.88
2019-05-23T23:36:06.916Z,44.23
2019-05-23T23:41:10.709Z,44.74
2019-05-23T23:46:32.713Z,44.25
2019-05-23T23:51:54.170Z,43.99
2019-05-23T23:57:15.337Z,44.91
